createdAt,value
2018-04-28T00:01:44.467Z,88.69
2018-04-28T00:04:12.583Z,88.81
2018-04-28T00:06:40.709Z,88.91
2018-04-28T00:09:08.829Z,89.03
2018-04-28T00:11:36.967Z,88.92
2018-04-28T00:14:05.097Z,89.83
2018-04-28T00:16:44.860Z,90.04
2018-04-28T00:19:12.986Z,89.78
2018-04-28T00:21:52.501Z,89.81
2018-04-28T00:24:26.510Z,89.80
2018-04-28T00:27:02.320Z,89.76
2018-04-28T00:29:30.486Z,89.68
2018-04-28T00:31:58.626Z,89.67
2018-04-28T00:34:27.521Z,89.57
2018-04-28T00:37:01.149Z,89.36
2018-04-28T00:39:29.297Z,89.48
2018-04-28T00:41:58.198Z,89.31
2018-04-28T00:44:36.255Z,89.83
2018-04-28T00:47:15.094Z,90.27
2018-04-28T00:49:44.139Z,90.40
2018-04-28T00:52:12.276Z,90.26
2018-04-28T00:54:41.156Z,90.42
2018-04-28T00:57:28.231Z,90.15
2018-04-28T00:59:58.016Z,90.10
2018-04-28T01:02:27.054Z,90.12
2018-04-28T01:04:55.180Z,90.13
2018-04-28T01:07:24.110Z,90.18
2018-04-28T01:10:00.724Z,90.38
2018-04-28T01:12:32.618Z,90.81
2018-04-28T01:15:20.484Z,91.35
2018-04-28T01:17:53.564Z,91.68
2018-04-28T01:20:30.653Z,91.56
2018-04-28T01:23:07.808Z,91.38
2018-04-28T01:25:41.693Z,91.20
2018-04-28T01:28:11.734Z,91.34
2018-04-28T01:30:41.659Z,91.59
2018-04-28T01:33:09.899Z,92.21
2018-04-28T01:35:52.899Z,92.65
2018-04-28T01:38:21.032Z,92.80
2018-04-28T01:40:49.140Z,92.66
2018-04-28T01:43:18.070Z,92.63
2018-04-28T01:45:48.139Z,92.34
2018-04-28T01:48:21.029Z,92.24
2018-04-28T01:50:55.843Z,92.03
2018-04-28T01:53:46.544Z,91.98
2018-04-28T01:56:17.183Z,92.19
2018-04-28T01:58:46.013Z,92.34
2018-04-28T02:01:17.092Z,92.59
2018-04-28T02:03:47.010Z,92.84
2018-04-28T02:06:21.029Z,92.95
2018-04-28T02:08:50.022Z,93.02
2018-04-28T02:11:40.757Z,92.75
2018-04-28T02:14:17.745Z,93.04
2018-04-28T02:16:52.729Z,93.51
2018-04-28T02:19:34.706Z,93.76
2018-04-28T02:22:27.800Z,93.91
2018-04-28T02:25:06.920Z,93.77
2018-04-28T02:27:41.609Z,93.74
2018-04-28T02:30:10.466Z,93.83
2018-04-28T02:35:51.551Z,93.80
2018-04-28T02:38:19.661Z,93.81
2018-04-28T02:40:59.595Z,93.82
2018-04-28T02:46:47.273Z,94.16
2018-04-28T02:49:17.346Z,94.13
2018-04-28T02:51:46.414Z,94.24
2018-04-28T02:54:18.179Z,94.28
2018-04-28T03:00:06.296Z,94.17
2018-04-28T03:02:35.095Z,94.15
2018-04-28T03:08:09.465Z,93.90
2018-04-28T03:10:43.371Z,94.00
2018-04-28T03:13:20.382Z,94.31
2018-04-28T03:15:50.415Z,94.69
2018-04-28T03:18:18.535Z,94.76
2018-04-28T03:20:46.659Z,94.82
2018-04-28T03:23:33.608Z,94.64
2018-04-28T03:26:01.738Z,94.27
2018-04-28T03:28:33.291Z,94.13
2018-04-28T03:31:05.180Z,94.21
2018-04-28T03:33:37.035Z,94.23
2018-04-28T03:39:16.847Z,94.04
2018-04-28T03:41:47.714Z,94.13
2018-04-28T03:44:16.562Z,94.42
2018-04-28T03:46:45.615Z,94.62
2018-04-28T03:49:28.613Z,94.64
2018-04-28T03:52:01.251Z,94.58
2018-04-28T03:54:35.115Z,94.32
2018-04-28T03:57:07.906Z,94.70
2018-04-28T03:59:47.920Z,94.73
2018-04-28T04:05:56.414Z,94.75
2018-04-28T04:08:32.932Z,94.36
2018-04-28T04:11:06.903Z,94.29
2018-04-28T04:13:41.762Z,94.11
2018-04-28T04:16:13.501Z,94.19
2018-04-28T04:18:52.234Z,94.33
2018-04-28T04:21:23.037Z,94.44
2018-04-28T04:24:01.893Z,94.37
2018-04-28T04:29:52.389Z,94.49
2018-04-28T04:32:24.368Z,94.96
2018-04-28T04:37:54.490Z,94.65
2018-04-28T04:43:44.988Z,94.21
2018-04-28T04:46:21.057Z,94.29
2018-04-28T04:49:09.075Z,94.07
2018-04-28T04:51:43.840Z,93.84
2018-04-28T04:54:26.851Z,93.55
2018-04-28T05:00:09.912Z,93.05
2018-04-28T05:02:44.806Z,92.68
2018-04-28T05:05:31.478Z,92.66
2018-04-28T05:08:08.261Z,92.03
2018-04-28T05:10:48.187Z,92.31
2018-04-28T05:16:21.024Z,92.04
2018-04-28T05:18:58.461Z,91.15
2018-04-28T05:21:32.152Z,90.84
2018-04-28T05:27:15.680Z,89.96
2018-04-28T05:29:46.613Z,90.28
2018-04-28T05:32:22.610Z,89.25
2018-04-28T05:38:16.092Z,88.59
2018-04-28T05:43:41.952Z,88.33
2018-04-28T05:46:26.680Z,87.93
2018-04-28T05:52:03.479Z,87.91
2018-04-28T05:58:04.202Z,86.95
2018-04-28T06:00:49.002Z,87.16
2018-04-28T06:03:28.799Z,87.12
2018-04-28T06:09:18.610Z,86.24
2018-04-28T06:15:24.837Z,86.51
2018-04-28T06:18:03.834Z,85.47
2018-04-28T06:20:38.637Z,85.05
2018-04-28T06:23:06.937Z,84.37
2018-04-28T06:25:35.075Z,83.76
2018-04-28T06:28:03.197Z,84.85
2018-04-28T06:30:31.329Z,83.32
2018-04-28T06:33:00.589Z,83.16
2018-04-28T06:35:28.726Z,83.39
2018-04-28T06:37:56.878Z,82.54
2018-04-28T06:40:25.006Z,82.66
2018-04-28T06:42:53.133Z,82.83
2018-04-28T06:45:21.292Z,81.77
2018-04-28T06:47:49.408Z,81.48
2018-04-28T06:50:17.546Z,80.28
2018-04-28T06:52:45.785Z,79.70
2018-04-28T06:55:13.921Z,78.30
2018-04-28T06:57:42.052Z,77.60
2018-04-28T07:00:10.216Z,76.51
2018-04-28T07:02:38.344Z,76.75
2018-04-28T07:05:06.543Z,77.23
2018-04-28T07:07:34.686Z,77.90
2018-04-28T07:10:02.833Z,76.31
2018-04-28T07:12:30.962Z,75.72
2018-04-28T07:14:59.127Z,74.92
2018-04-28T07:17:27.251Z,75.25
2018-04-28T07:19:55.373Z,74.40
2018-04-28T07:22:23.520Z,74.09
2018-04-28T07:24:52.302Z,74.69
2018-04-28T07:27:20.432Z,73.85
2018-04-28T07:29:48.594Z,72.58
2018-04-28T07:32:16.719Z,74.14
2018-04-28T07:34:44.853Z,72.30
2018-04-28T07:37:12.993Z,71.29
2018-04-28T07:39:41.121Z,71.49
2018-04-28T07:42:09.264Z,72.30
2018-04-28T07:44:37.565Z,72.13
2018-04-28T07:47:05.774Z,72.08
2018-04-28T07:49:33.914Z,71.39
2018-04-28T07:52:02.071Z,70.70
2018-04-28T07:54:30.217Z,70.07
2018-04-28T07:56:58.347Z,69.83
2018-04-28T07:59:26.629Z,71.11
2018-04-28T08:01:54.760Z,70.69
2018-04-28T08:04:22.888Z,68.03
2018-04-28T08:06:51.056Z,67.22
2018-04-28T08:09:19.227Z,67.03
2018-04-28T08:11:47.359Z,65.85
2018-04-28T08:14:15.496Z,65.24
2018-04-28T08:16:43.619Z,65.84
2018-04-28T08:19:11.761Z,65.21
2018-04-28T08:21:39.931Z,62.64
2018-04-28T08:24:08.080Z,64.80
2018-04-28T08:26:37.025Z,62.86
2018-04-28T08:29:05.191Z,61.95
2018-04-28T08:31:33.370Z,63.81
2018-04-28T08:34:01.488Z,61.75
2018-04-28T08:36:29.623Z,60.95
2018-04-28T08:38:57.772Z,59.36
2018-04-28T08:41:25.928Z,60.60
2018-04-28T08:43:54.079Z,61.18
2018-04-28T08:46:22.225Z,58.88
2018-04-28T08:48:50.365Z,58.31
2018-04-28T08:51:18.515Z,60.10
2018-04-28T08:53:46.638Z,60.97
2018-04-28T08:56:14.769Z,60.79
2018-04-28T08:58:42.916Z,57.45
2018-04-28T09:01:11.053Z,57.27
2018-04-28T09:03:39.247Z,59.31
2018-04-28T09:06:07.326Z,59.62
2018-04-28T09:08:35.479Z,57.25
2018-04-28T09:11:03.710Z,55.92
2018-04-28T09:13:31.850Z,57.00
2018-04-28T09:15:59.977Z,57.71
2018-04-28T09:18:28.101Z,56.91
2018-04-28T09:20:59.095Z,56.25
2018-04-28T09:23:27.220Z,57.18
2018-04-28T09:25:55.385Z,56.27
2018-04-28T09:28:23.517Z,55.71
2018-04-28T09:30:51.642Z,55.57
2018-04-28T09:33:19.797Z,55.23
2018-04-28T09:35:47.953Z,54.67
2018-04-28T09:38:16.092Z,54.83
2018-04-28T09:40:44.219Z,54.43
2018-04-28T09:43:12.363Z,56.25
2018-04-28T09:45:40.504Z,55.65
2018-04-28T09:48:08.655Z,55.21
2018-04-28T09:50:36.793Z,55.27
2018-04-28T09:53:04.937Z,54.32
2018-04-28T09:55:33.097Z,53.84
2018-04-28T09:58:06.166Z,52.89
2018-04-28T10:00:39.805Z,54.06
2018-04-28T10:03:07.969Z,52.78
2018-04-28T10:05:36.096Z,55.95
2018-04-28T10:08:04.230Z,54.13
2018-04-28T10:10:32.462Z,52.89
2018-04-28T10:13:00.627Z,51.54
2018-04-28T10:15:28.759Z,52.25
2018-04-28T10:17:56.915Z,54.59
2018-04-28T10:20:25.096Z,51.79
2018-04-28T10:22:53.177Z,52.01
2018-04-28T10:25:21.330Z,50.50
2018-04-28T10:27:49.455Z,51.63
2018-04-28T10:30:17.607Z,51.79
2018-04-28T10:32:45.730Z,50.22
2018-04-28T10:35:13.874Z,45.68
2018-04-28T10:37:42.025Z,46.32
2018-04-28T10:40:10.157Z,47.43
2018-04-28T10:42:38.304Z,45.39
2018-04-28T10:45:06.538Z,44.03
2018-04-28T10:47:34.711Z,44.37
2018-04-28T10:50:02.813Z,44.07
2018-04-28T10:52:30.945Z,44.72
2018-04-28T10:54:59.078Z,46.44
2018-04-28T10:57:27.198Z,47.12
2018-04-28T10:59:55.836Z,46.83
2018-04-28T11:02:23.986Z,48.11
2018-04-28T11:04:52.125Z,47.77
2018-04-28T11:07:20.265Z,48.26
2018-04-28T11:09:48.431Z,50.03
2018-04-28T11:12:16.652Z,48.70
2018-04-28T11:14:44.832Z,49.31
2018-04-28T11:17:13.003Z,51.50
2018-04-28T11:19:41.150Z,50.03
2018-04-28T11:22:09.283Z,51.49
2018-04-28T11:24:37.427Z,50.05
2018-04-28T11:27:05.607Z,48.28
2018-04-28T11:29:33.731Z,49.35
2018-04-28T11:32:01.879Z,47.64
2018-04-28T11:34:30.020Z,48.02
2018-04-28T11:36:58.139Z,47.92
2018-04-28T11:39:26.297Z,48.56
2018-04-28T11:41:54.423Z,47.03
2018-04-28T11:44:22.547Z,47.97
2018-04-28T11:46:50.731Z,46.83
2018-04-28T11:49:18.863Z,44.27
2018-04-28T11:51:47.005Z,47.29
2018-04-28T11:54:15.146Z,48.99
2018-04-28T11:56:43.298Z,48.06
2018-04-28T11:59:11.433Z,48.10
2018-04-28T12:01:39.565Z,47.42
2018-04-28T12:04:07.694Z,48.99
2018-04-28T12:06:35.834Z,47.12
2018-04-28T12:09:03.969Z,47.77
2018-04-28T12:11:32.169Z,47.88
2018-04-28T12:14:00.275Z,48.58
2018-04-28T12:16:28.407Z,48.76
2018-04-28T12:18:56.563Z,48.29
2018-04-28T12:21:24.687Z,49.58
2018-04-28T12:23:52.818Z,48.92
2018-04-28T12:26:20.957Z,47.68
2018-04-28T12:28:49.109Z,47.33
2018-04-28T12:31:17.258Z,45.91
2018-04-28T12:33:45.391Z,46.99
2018-04-28T12:36:13.508Z,47.40
2018-04-28T12:38:41.673Z,46.80
2018-04-28T12:41:10.279Z,45.30
2018-04-28T12:43:38.405Z,44.89
2018-04-28T12:46:06.577Z,43.11
2018-04-28T12:48:34.689Z,45.37
2018-04-28T12:51:02.839Z,44.51
2018-04-28T12:53:30.985Z,46.03
2018-04-28T12:55:59.122Z,45.95
2018-04-28T12:58:27.253Z,43.58
2018-04-28T13:00:55.377Z,44.08
2018-04-28T13:03:23.501Z,43.89
2018-04-28T13:05:51.628Z,44.16
2018-04-28T13:08:19.763Z,44.16
2018-04-28T13:10:47.921Z,43.92
2018-04-28T13:13:16.050Z,43.19
2018-04-28T13:15:44.293Z,43.29
2018-04-28T13:18:12.389Z,43.21
2018-04-28T13:20:40.510Z,42.18
2018-04-28T13:23:08.666Z,43.10
2018-04-28T13:25:36.796Z,41.54
2018-04-28T13:28:04.923Z,40.60
2018-04-28T13:30:33.041Z,40.45
2018-04-28T13:33:01.190Z,40.17
2018-04-28T13:35:29.306Z,42.23
2018-04-28T13:37:57.429Z,42.71
2018-04-28T13:40:25.550Z,43.18
2018-04-28T13:42:53.818Z,43.41
2018-04-28T13:45:22.459Z,44.68
2018-04-28T13:47:50.598Z,45.24
2018-04-28T13:50:18.813Z,46.60
2018-04-28T13:52:46.949Z,45.54
2018-04-28T13:55:15.081Z,45.28
2018-04-28T13:57:43.198Z,46.66
2018-04-28T14:00:11.354Z,46.54
2018-04-28T14:02:39.478Z,46.38
2018-04-28T14:05:07.612Z,46.76
2018-04-28T14:07:35.751Z,45.91
2018-04-28T14:10:03.959Z,46.40
2018-04-28T14:12:32.103Z,46.74
2018-04-28T14:15:00.228Z,46.58
2018-04-28T14:17:28.361Z,46.70
2018-04-28T14:19:56.479Z,46.93
2018-04-28T14:22:24.632Z,46.25
2018-04-28T14:24:52.762Z,46.53
2018-04-28T14:27:20.970Z,46.13
2018-04-28T14:29:49.028Z,46.69
2018-04-28T14:32:17.162Z,47.66
2018-04-28T14:34:45.296Z,49.26
2018-04-28T14:37:13.411Z,47.89
2018-04-28T14:42:15.842Z,47.88
2018-04-28T14:44:43.981Z,47.50
2018-04-28T14:47:12.134Z,46.95
2018-04-28T14:49:40.268Z,47.16
2018-04-28T14:52:08.401Z,48.06
2018-04-28T14:54:36.507Z,47.73
2018-04-28T14:57:04.637Z,47.57
2018-04-28T14:59:32.799Z,47.60
2018-04-28T15:02:00.938Z,47.81
2018-04-28T15:04:29.223Z,47.88
2018-04-28T15:06:57.362Z,48.52
2018-04-28T15:09:25.490Z,49.22
2018-04-28T15:11:53.626Z,49.41
2018-04-28T15:14:21.821Z,48.15
2018-04-28T15:16:49.965Z,48.38
2018-04-28T15:19:18.117Z,48.36
2018-04-28T15:21:46.237Z,48.87
2018-04-28T15:24:14.363Z,47.98
2018-04-28T15:26:42.498Z,48.75
2018-04-28T15:29:10.679Z,48.15
2018-04-28T15:31:38.860Z,49.20
2018-04-28T15:34:06.969Z,49.24
2018-04-28T15:36:35.110Z,49.64
2018-04-28T15:39:03.240Z,48.63
2018-04-28T15:41:31.387Z,47.90
2018-04-28T15:43:59.541Z,48.32
2018-04-28T15:46:27.659Z,48.68
2018-04-28T15:48:55.789Z,49.45
2018-04-28T15:51:23.921Z,49.04
2018-04-28T15:53:52.061Z,49.99
2018-04-28T15:56:20.187Z,49.00
2018-04-28T15:58:48.324Z,49.14
2018-04-28T16:01:16.458Z,49.52
2018-04-28T16:03:44.578Z,50.00
2018-04-28T16:06:12.707Z,49.98
2018-04-28T16:08:40.839Z,49.47
2018-04-28T16:11:10.043Z,49.89
2018-04-28T16:13:38.170Z,49.92
2018-04-28T16:16:06.286Z,50.44
2018-04-28T16:18:34.430Z,50.31
2018-04-28T16:21:02.550Z,50.68
2018-04-28T16:23:30.677Z,50.91
2018-04-28T16:25:58.823Z,51.05
2018-04-28T16:28:26.991Z,50.68
2018-04-28T16:30:55.095Z,51.45
2018-04-28T16:33:23.226Z,52.12
2018-04-28T16:35:51.379Z,52.28
2018-04-28T16:38:19.495Z,51.66
2018-04-28T16:40:47.618Z,52.62
2018-04-28T16:43:15.742Z,51.15
2018-04-28T16:45:43.878Z,51.64
2018-04-28T16:48:12.006Z,51.71
2018-04-28T16:50:40.156Z,51.40
2018-04-28T16:53:08.291Z,52.08
2018-04-28T16:55:37.860Z,52.30
2018-04-28T16:58:06.062Z,52.77
2018-04-28T17:00:34.196Z,52.72
2018-04-28T17:03:02.335Z,52.46
2018-04-28T17:05:30.478Z,53.32
2018-04-28T17:07:58.603Z,52.64
2018-04-28T17:10:26.790Z,53.00
2018-04-28T17:12:54.920Z,52.96
2018-04-28T17:15:23.053Z,53.26
2018-04-28T17:17:54.726Z,53.93
2018-04-28T17:20:22.858Z,53.79
2018-04-28T17:22:50.994Z,53.99
2018-04-28T17:25:19.166Z,53.68
2018-04-28T17:27:46.716Z,53.97
2018-04-28T17:30:14.870Z,53.75
2018-04-28T17:32:43.027Z,54.08
2018-04-28T17:35:11.147Z,54.32
2018-04-28T17:37:39.304Z,54.53
2018-04-28T17:40:07.435Z,54.15
2018-04-28T17:42:35.549Z,54.13
2018-04-28T17:45:03.692Z,54.19
2018-04-28T17:47:31.958Z,54.32
2018-04-28T17:50:00.089Z,54.97
2018-04-28T17:52:28.223Z,54.55
2018-04-28T17:54:56.377Z,54.40
2018-04-28T17:57:24.527Z,54.70
2018-04-28T17:59:52.636Z,55.04
2018-04-28T18:02:20.793Z,54.81
2018-04-28T18:04:48.933Z,55.38
2018-04-28T18:07:17.164Z,55.74
2018-04-28T18:09:45.206Z,56.03
2018-04-28T18:12:13.352Z,56.72
2018-04-28T18:14:41.526Z,57.32
2018-04-28T18:17:10.749Z,57.94
2018-04-28T18:19:38.880Z,58.35
2018-04-28T18:22:06.993Z,59.69
2018-04-28T18:24:35.153Z,59.12
2018-04-28T18:27:03.328Z,59.73
2018-04-28T18:29:31.496Z,60.02
2018-04-28T18:31:59.635Z,61.06
2018-04-28T18:34:27.879Z,61.43
2018-04-28T18:36:56.017Z,61.69
2018-04-28T18:39:24.178Z,61.54
2018-04-28T18:41:52.298Z,61.92
2018-04-28T18:44:20.430Z,62.22
2018-04-28T18:46:48.570Z,62.22
2018-04-28T18:49:16.712Z,63.04
2018-04-28T18:51:44.963Z,63.42
2018-04-28T18:54:13.041Z,63.54
2018-04-28T18:56:41.162Z,63.82
2018-04-28T18:59:09.279Z,64.04
2018-04-28T19:01:37.581Z,64.20
2018-04-28T19:04:05.695Z,64.31
2018-04-28T19:06:33.812Z,64.27
2018-04-28T19:09:01.966Z,64.81
2018-04-28T19:11:30.101Z,65.56
2018-04-28T19:13:58.238Z,66.38
2018-04-28T19:16:26.388Z,66.97
2018-04-28T19:18:54.520Z,67.54
2018-04-28T19:21:22.643Z,68.41
2018-04-28T19:23:50.815Z,68.46
2018-04-28T19:26:18.945Z,69.14
2018-04-28T19:28:47.083Z,69.77
2018-04-28T19:31:15.480Z,71.14
2018-04-28T19:33:43.610Z,71.29
2018-04-28T19:36:11.766Z,71.12
2018-04-28T19:38:39.972Z,71.17
2018-04-28T19:41:08.126Z,72.19
2018-04-28T19:43:36.270Z,72.97
2018-04-28T19:46:04.442Z,73.13
2018-04-28T19:48:32.601Z,73.00
2018-04-28T19:51:00.717Z,73.17
2018-04-28T19:53:28.871Z,73.42
2018-04-28T19:55:57.005Z,74.42
2018-04-28T19:58:25.130Z,74.47
2018-04-28T20:00:53.419Z,76.00
2018-04-28T20:03:21.563Z,76.05
2018-04-28T20:05:49.692Z,76.96
2018-04-28T20:08:17.971Z,77.17
2018-04-28T20:10:46.101Z,77.54
2018-04-28T20:13:14.223Z,77.36
2018-04-28T20:15:42.409Z,77.83
2018-04-28T20:18:10.535Z,78.48
2018-04-28T20:20:38.671Z,78.30
2018-04-28T20:23:18.756Z,79.32
2018-04-28T20:25:46.893Z,79.33
2018-04-28T20:28:15.026Z,79.56
2018-04-28T20:30:43.183Z,79.52
2018-04-28T20:33:11.330Z,79.96
2018-04-28T20:35:39.464Z,80.09
2018-04-28T20:38:07.739Z,80.41
2018-04-28T20:40:35.907Z,80.89
2018-04-28T20:43:04.035Z,81.27
2018-04-28T20:45:32.203Z,81.60
2018-04-28T20:48:00.367Z,81.64
2018-04-28T20:50:28.502Z,81.88
2018-04-28T20:52:56.666Z,82.06
2018-04-28T20:55:24.798Z,82.27
2018-04-28T20:57:52.934Z,82.18
2018-04-28T21:00:21.095Z,82.44
2018-04-28T21:02:49.231Z,82.46
2018-04-28T21:05:17.373Z,82.21
2018-04-28T21:07:45.631Z,83.37
2018-04-28T21:10:13.771Z,83.53
2018-04-28T21:12:41.908Z,84.41
2018-04-28T21:15:10.090Z,84.22
2018-04-28T21:17:38.213Z,84.38
2018-04-28T21:20:07.234Z,84.42
2018-04-28T21:22:35.413Z,84.67
2018-04-28T21:25:03.572Z,84.78
2018-04-28T21:27:31.701Z,84.93
2018-04-28T21:29:59.845Z,85.38
2018-04-28T21:32:27.986Z,85.41
2018-04-28T21:34:56.113Z,85.19
2018-04-28T21:37:24.280Z,85.69
2018-04-28T21:39:52.405Z,85.74
2018-04-28T21:42:20.544Z,85.33
2018-04-28T21:44:48.814Z,86.42
2018-04-28T21:47:16.952Z,86.24
2018-04-28T21:49:45.091Z,85.07
2018-04-28T21:52:13.243Z,84.16
2018-04-28T21:54:41.361Z,84.37
2018-04-28T21:57:09.609Z,84.48
2018-04-28T21:59:37.769Z,83.71
2018-04-28T22:02:05.901Z,83.82
2018-04-28T22:04:34.026Z,84.32
2018-04-28T22:07:02.212Z,84.49
2018-04-28T22:09:30.333Z,84.52
2018-04-28T22:11:58.465Z,86.53
2018-04-28T22:14:26.633Z,86.71
2018-04-28T22:16:54.749Z,86.71
2018-04-28T22:19:22.895Z,86.36
2018-04-28T22:21:51.160Z,86.46
2018-04-28T22:24:19.295Z,86.41
2018-04-28T22:26:47.419Z,87.07
2018-04-28T22:29:15.590Z,86.89
2018-04-28T22:31:43.710Z,87.12
2018-04-28T22:34:13.034Z,86.56
2018-04-28T22:36:41.195Z,86.27
2018-04-28T22:39:09.767Z,86.81
2018-04-28T22:41:37.885Z,87.22
2018-04-28T22:44:06.084Z,87.17
2018-04-28T22:46:34.205Z,87.19
2018-04-28T22:49:02.341Z,87.47
2018-04-28T22:51:30.479Z,87.49
2018-04-28T22:53:58.623Z,87.65
2018-04-28T22:56:26.757Z,87.93
2018-04-28T22:58:54.906Z,88.44
2018-04-28T23:01:23.035Z,88.28
2018-04-28T23:03:51.149Z,89.02
2018-04-28T23:06:19.435Z,89.41
2018-04-28T23:08:47.565Z,90.52
2018-04-28T23:11:15.701Z,90.23
2018-04-28T23:13:43.862Z,89.97
2018-04-28T23:16:11.994Z,90.23
2018-04-28T23:18:40.130Z,89.95
2018-04-28T23:21:08.298Z,89.78
2018-04-28T23:23:36.436Z,90.06
2018-04-28T23:26:04.584Z,90.33
2018-04-28T23:28:32.727Z,90.58
2018-04-28T23:31:00.871Z,90.37
2018-04-28T23:33:28.985Z,90.19
2018-04-28T23:35:57.143Z,90.00
2018-04-28T23:38:25.286Z,90.01
2018-04-28T23:40:53.414Z,89.97
2018-04-28T23:43:21.711Z,89.83
2018-04-28T23:45:49.843Z,89.81
2018-04-28T23:48:17.971Z,90.53
2018-04-28T23:50:46.132Z,90.85
2018-04-28T23:53:14.263Z,90.48
2018-04-28T23:55:42.405Z,90.45
2018-04-28T23:58:10.540Z,90.40
